sensor_id;sensor_type;location;lat;lon;timestamp;P1;durP1;ratioP1;P2;durP2;ratioP2
48578;SDS011;34357;51.948;6.132;2023-04-01T00:01:40;9.15;;;3.83;;
48578;SDS011;34357;51.948;6.132;2023-04-01T00:04:06;9.27;;;3.10;;
48578;SDS011;34357;51.948;6.132;2023-04-01T00:06:31;10.40;;;4.25;;
48578;SDS011;34357;51.948;6.132;2023-04-01T00:08:57;14.70;;;4.97;;
48578;SDS011;34357;51.948;6.132;2023-04-01T00:11:23;7.40;;;4.47;;
48578;SDS011;34357;51.948;6.132;2023-04-01T00:13:49;10.23;;;5.00;;
48578;SDS011;34357;51.948;6.132;2023-04-01T00:16:15;10.23;;;5.80;;
48578;SDS011;34357;51.948;6.132;2023-04-01T00:18:41;11.55;;;5.82;;
48578;SDS011;34357;51.948;6.132;2023-04-01T00:21:06;12.38;;;5.72;;
48578;SDS011;34357;51.948;6.132;2023-04-01T00:23:33;11.82;;;5.18;;
48578;SDS011;34357;51.948;6.132;2023-04-01T00:26:00;13.75;;;6.65;;
48578;SDS011;34357;51.948;6.132;2023-04-01T00:28:27;12.70;;;6.78;;
48578;SDS011;34357;51.948;6.132;2023-04-01T00:30:53;10.63;;;6.75;;
48578;SDS011;34357;51.948;6.132;2023-04-01T00:33:19;12.57;;;8.07;;
48578;SDS011;34357;51.948;6.132;2023-04-01T00:35:45;13.57;;;6.90;;
48578;SDS011;34357;51.948;6.132;2023-04-01T00:38:11;12.23;;;5.50;;
48578;SDS011;34357;51.948;6.132;2023-04-01T00:40:39;13.30;;;5.47;;
48578;SDS011;34357;51.948;6.132;2023-04-01T00:43:18;11.38;;;5.60;;
48578;SDS011;34357;51.948;6.132;2023-04-01T00:45:46;10.90;;;5.50;;
48578;SDS011;34357;51.948;6.132;2023-04-01T00:50:40;10.20;;;5.22;;
48578;SDS011;34357;51.948;6.132;2023-04-01T00:53:09;11.85;;;6.10;;
48578;SDS011;34357;51.948;6.132;2023-04-01T00:55:37;11.25;;;6.10;;
48578;SDS011;34357;51.948;6.132;2023-04-01T00:58:09;12.52;;;6.97;;
48578;SDS011;34357;51.948;6.132;2023-04-01T01:00:42;14.57;;;7.28;;
48578;SDS011;34357;51.948;6.132;2023-04-01T01:03:08;12.32;;;6.40;;
48578;SDS011;34357;51.948;6.132;2023-04-01T01:05:48;15.65;;;7.95;;
48578;SDS011;34357;51.948;6.132;2023-04-01T01:11:18;16.33;;;7.63;;
48578;SDS011;34357;51.948;6.132;2023-04-01T01:16:50;16.58;;;8.23;;
48578;SDS011;34357;51.948;6.132;2023-04-01T01:28:03;12.38;;;7.45;;
48578;SDS011;34357;51.948;6.132;2023-04-01T01:30:59;12.68;;;7.80;;
48578;SDS011;34357;51.948;6.132;2023-04-01T01:33:56;12.75;;;7.47;;
48578;SDS011;34357;51.948;6.132;2023-04-01T01:36:26;14.23;;;8.05;;
48578;SDS011;34357;51.948;6.132;2023-04-01T01:38:56;12.38;;;7.60;;
48578;SDS011;34357;51.948;6.132;2023-04-01T01:41:23;12.90;;;8.35;;
48578;SDS011;34357;51.948;6.132;2023-04-01T01:43:52;14.77;;;8.98;;
48578;SDS011;34357;51.948;6.132;2023-04-01T01:46:21;13.45;;;9.80;;
48578;SDS011;34357;51.948;6.132;2023-04-01T01:48:50;15.50;;;9.32;;
48578;SDS011;34357;51.948;6.132;2023-04-01T01:51:17;12.80;;;9.30;;
48578;SDS011;34357;51.948;6.132;2023-04-01T01:53:45;17.80;;;11.38;;
48578;SDS011;34357;51.948;6.132;2023-04-01T01:56:11;15.45;;;11.25;;
48578;SDS011;34357;51.948;6.132;2023-04-01T02:01:23;18.88;;;12.25;;
48578;SDS011;34357;51.948;6.132;2023-04-01T02:03:52;19.08;;;11.63;;
48578;SDS011;34357;51.948;6.132;2023-04-01T02:06:20;18.63;;;12.68;;
48578;SDS011;34357;51.948;6.132;2023-04-01T02:09:01;16.55;;;13.55;;
48578;SDS011;34357;51.948;6.132;2023-04-01T02:11:30;22.23;;;13.82;;
48578;SDS011;34357;51.948;6.132;2023-04-01T02:14:13;21.50;;;14.43;;
48578;SDS011;34357;51.948;6.132;2023-04-01T02:16:58;20.90;;;13.98;;
48578;SDS011;34357;51.948;6.132;2023-04-01T02:19:32;21.85;;;14.60;;
48578;SDS011;34357;51.948;6.132;2023-04-01T02:22:03;22.70;;;14.73;;
48578;SDS011;34357;51.948;6.132;2023-04-01T02:24:32;20.23;;;15.05;;
48578;SDS011;34357;51.948;6.132;2023-04-01T02:27:00;21.05;;;16.65;;
48578;SDS011;34357;51.948;6.132;2023-04-01T02:29:27;21.38;;;15.52;;
48578;SDS011;34357;51.948;6.132;2023-04-01T02:31:53;21.67;;;15.52;;
48578;SDS011;34357;51.948;6.132;2023-04-01T02:34:20;19.63;;;14.50;;
48578;SDS011;34357;51.948;6.132;2023-04-01T02:36:48;17.15;;;12.82;;
48578;SDS011;34357;51.948;6.132;2023-04-01T02:39:15;17.55;;;13.05;;
48578;SDS011;34357;51.948;6.132;2023-04-01T02:41:42;17.98;;;13.20;;
48578;SDS011;34357;51.948;6.132;2023-04-01T02:44:09;16.40;;;12.45;;
48578;SDS011;34357;51.948;6.132;2023-04-01T02:46:36;15.05;;;12.88;;
48578;SDS011;34357;51.948;6.132;2023-04-01T02:49:03;18.27;;;13.18;;
48578;SDS011;34357;51.948;6.132;2023-04-01T02:51:29;18.52;;;14.48;;
48578;SDS011;34357;51.948;6.132;2023-04-01T02:53:55;19.70;;;15.02;;
48578;SDS011;34357;51.948;6.132;2023-04-01T02:56:21;17.90;;;13.93;;
48578;SDS011;34357;51.948;6.132;2023-04-01T02:58:47;17.30;;;13.07;;
48578;SDS011;34357;51.948;6.132;2023-04-01T03:01:13;20.25;;;13.20;;
48578;SDS011;34357;51.948;6.132;2023-04-01T03:03:39;15.65;;;13.57;;
48578;SDS011;34357;51.948;6.132;2023-04-01T03:06:09;13.13;;;10.50;;
48578;SDS011;34357;51.948;6.132;2023-04-01T03:08:36;13.38;;;11.65;;
48578;SDS011;34357;51.948;6.132;2023-04-01T03:11:02;16.25;;;12.68;;
48578;SDS011;34357;51.948;6.132;2023-04-01T03:13:30;18.67;;;13.70;;
48578;SDS011;34357;51.948;6.132;2023-04-01T03:15:56;15.60;;;12.35;;
48578;SDS011;34357;51.948;6.132;2023-04-01T03:18:22;14.10;;;11.35;;
48578;SDS011;34357;51.948;6.132;2023-04-01T03:20:48;11.27;;;9.13;;
48578;SDS011;34357;51.948;6.132;2023-04-01T03:23:14;10.77;;;9.35;;
48578;SDS011;34357;51.948;6.132;2023-04-01T03:25:42;11.32;;;7.85;;
48578;SDS011;34357;51.948;6.132;2023-04-01T03:28:08;9.07;;;8.15;;
48578;SDS011;34357;51.948;6.132;2023-04-01T03:30:35;11.80;;;7.90;;
48578;SDS011;34357;51.948;6.132;2023-04-01T03:33:01;8.38;;;6.38;;
48578;SDS011;34357;51.948;6.132;2023-04-01T03:35:30;8.18;;;5.82;;
48578;SDS011;34357;51.948;6.132;2023-04-01T03:37:55;9.27;;;6.55;;
48578;SDS011;34357;51.948;6.132;2023-04-01T03:40:21;10.85;;;7.07;;
48578;SDS011;34357;51.948;6.132;2023-04-01T03:42:47;9.40;;;7.60;;
48578;SDS011;34357;51.948;6.132;2023-04-01T03:45:14;10.10;;;7.63;;
48578;SDS011;34357;51.948;6.132;2023-04-01T03:47:39;9.60;;;7.18;;
48578;SDS011;34357;51.948;6.132;2023-04-01T03:50:06;11.27;;;8.25;;
48578;SDS011;34357;51.948;6.132;2023-04-01T03:52:33;9.52;;;7.32;;
48578;SDS011;34357;51.948;6.132;2023-04-01T03:55:00;10.55;;;8.23;;
48578;SDS011;34357;51.948;6.132;2023-04-01T03:57:26;12.07;;;8.90;;
48578;SDS011;34357;51.948;6.132;2023-04-01T03:59:55;10.45;;;8.80;;
48578;SDS011;34357;51.948;6.132;2023-04-01T04:02:21;9.48;;;7.63;;
48578;SDS011;34357;51.948;6.132;2023-04-01T04:04:47;9.55;;;7.55;;
48578;SDS011;34357;51.948;6.132;2023-04-01T04:07:12;9.18;;;7.45;;
48578;SDS011;34357;51.948;6.132;2023-04-01T04:10:10;6.95;;;6.25;;
48578;SDS011;34357;51.948;6.132;2023-04-01T04:12:36;8.85;;;6.70;;
48578;SDS011;34357;51.948;6.132;2023-04-01T04:15:02;6.13;;;5.53;;
48578;SDS011;34357;51.948;6.132;2023-04-01T04:17:28;7.13;;;5.88;;
48578;SDS011;34357;51.948;6.132;2023-04-01T04:19:53;6.30;;;5.63;;
48578;SDS011;34357;51.948;6.132;2023-04-01T04:22:20;6.70;;;5.43;;
48578;SDS011;34357;51.948;6.132;2023-04-01T04:24:46;7.15;;;5.45;;
48578;SDS011;34357;51.948;6.132;2023-04-01T04:27:12;7.00;;;5.10;;
48578;SDS011;34357;51.948;6.132;2023-04-01T04:29:48;6.00;;;5.25;;
48578;SDS011;34357;51.948;6.132;2023-04-01T04:32:14;6.75;;;4.63;;
48578;SDS011;34357;51.948;6.132;2023-04-01T04:34:40;9.70;;;5.75;;
48578;SDS011;34357;51.948;6.132;2023-04-01T04:37:06;5.82;;;5.15;;
48578;SDS011;34357;51.948;6.132;2023-04-01T04:39:34;6.63;;;5.32;;
48578;SDS011;34357;51.948;6.132;2023-04-01T04:42:01;8.18;;;5.20;;
48578;SDS011;34357;51.948;6.132;2023-04-01T04:44:27;5.45;;;4.93;;
48578;SDS011;34357;51.948;6.132;2023-04-01T04:46:52;6.70;;;5.43;;
48578;SDS011;34357;51.948;6.132;2023-04-01T04:49:18;6.60;;;5.60;;
48578;SDS011;34357;51.948;6.132;2023-04-01T04:51:44;6.30;;;5.50;;
48578;SDS011;34357;51.948;6.132;2023-04-01T04:54:12;7.10;;;6.40;;
48578;SDS011;34357;51.948;6.132;2023-04-01T04:56:53;6.78;;;6.07;;
48578;SDS011;34357;51.948;6.132;2023-04-01T04:59:21;7.57;;;6.70;;
48578;SDS011;34357;51.948;6.132;2023-04-01T05:02:16;6.50;;;5.80;;
48578;SDS011;34357;51.948;6.132;2023-04-01T05:04:41;8.65;;;6.90;;
48578;SDS011;34357;51.948;6.132;2023-04-01T05:07:09;8.57;;;6.55;;
48578;SDS011;34357;51.948;6.132;2023-04-01T05:09:35;8.60;;;7.75;;
48578;SDS011;34357;51.948;6.132;2023-04-01T05:12:01;9.80;;;8.80;;
48578;SDS011;34357;51.948;6.132;2023-04-01T05:14:36;11.10;;;8.88;;
48578;SDS011;34357;51.948;6.132;2023-04-01T05:17:11;11.70;;;9.57;;
48578;SDS011;34357;51.948;6.132;2023-04-01T05:19:37;13.25;;;10.43;;
48578;SDS011;34357;51.948;6.132;2023-04-01T05:22:04;14.73;;;11.98;;
48578;SDS011;34357;51.948;6.132;2023-04-01T05:24:30;16.20;;;11.85;;
48578;SDS011;34357;51.948;6.132;2023-04-01T05:26:57;14.18;;;12.50;;
48578;SDS011;34357;51.948;6.132;2023-04-01T05:29:24;17.70;;;14.27;;
48578;SDS011;34357;51.948;6.132;2023-04-01T05:31:57;17.65;;;14.00;;
48578;SDS011;34357;51.948;6.132;2023-04-01T05:34:22;16.45;;;14.00;;
48578;SDS011;34357;51.948;6.132;2023-04-01T05:36:48;17.88;;;13.52;;
48578;SDS011;34357;51.948;6.132;2023-04-01T05:39:15;19.20;;;14.82;;
48578;SDS011;34357;51.948;6.132;2023-04-01T05:41:42;17.48;;;13.82;;
48578;SDS011;34357;51.948;6.132;2023-04-01T05:44:10;19.40;;;14.75;;
48578;SDS011;34357;51.948;6.132;2023-04-01T05:46:40;17.95;;;13.90;;
48578;SDS011;34357;51.948;6.132;2023-04-01T05:49:24;20.30;;;14.02;;
48578;SDS011;34357;51.948;6.132;2023-04-01T05:51:50;15.55;;;12.60;;
48578;SDS011;34357;51.948;6.132;2023-04-01T05:54:17;17.80;;;13.80;;
48578;SDS011;34357;51.948;6.132;2023-04-01T05:56:44;17.92;;;12.98;;
48578;SDS011;34357;51.948;6.132;2023-04-01T05:59:10;17.75;;;14.02;;
48578;SDS011;34357;51.948;6.132;2023-04-01T06:01:36;15.73;;;12.05;;
48578;SDS011;34357;51.948;6.132;2023-04-01T06:04:02;18.90;;;14.43;;
48578;SDS011;34357;51.948;6.132;2023-04-01T06:06:29;16.55;;;13.85;;
48578;SDS011;34357;51.948;6.132;2023-04-01T06:09:19;15.60;;;13.35;;
48578;SDS011;34357;51.948;6.132;2023-04-01T06:19:46;22.05;;;15.50;;
48578;SDS011;34357;51.948;6.132;2023-04-01T06:22:38;21.42;;;16.02;;
48578;SDS011;34357;51.948;6.132;2023-04-01T06:25:37;23.17;;;16.52;;
48578;SDS011;34357;51.948;6.132;2023-04-01T06:33:58;26.50;;;16.83;;
48578;SDS011;34357;51.948;6.132;2023-04-01T06:44:55;28.05;;;14.10;;
48578;SDS011;34357;51.948;6.132;2023-04-01T06:59:59;31.30;;;15.07;;
48578;SDS011;34357;51.948;6.132;2023-04-01T07:02:33;28.58;;;14.90;;
48578;SDS011;34357;51.948;6.132;2023-04-01T07:05:06;31.60;;;13.93;;
48578;SDS011;34357;51.948;6.132;2023-04-01T07:07:35;29.67;;;14.27;;
48578;SDS011;34357;51.948;6.132;2023-04-01T07:10:17;27.80;;;14.85;;
48578;SDS011;34357;51.948;6.132;2023-04-01T07:13:39;28.27;;;14.82;;
48578;SDS011;34357;51.948;6.132;2023-04-01T07:16:16;25.70;;;13.60;;
48578;SDS011;34357;51.948;6.132;2023-04-01T07:18:54;23.75;;;13.10;;
48578;SDS011;34357;51.948;6.132;2023-04-01T07:21:49;22.67;;;12.48;;
48578;SDS011;34357;51.948;6.132;2023-04-01T07:24:33;22.75;;;12.43;;
48578;SDS011;34357;51.948;6.132;2023-04-01T07:27:11;26.00;;;13.73;;
48578;SDS011;34357;51.948;6.132;2023-04-01T07:29:39;25.75;;;13.52;;
48578;SDS011;34357;51.948;6.132;2023-04-01T07:32:12;25.65;;;13.48;;
48578;SDS011;34357;51.948;6.132;2023-04-01T07:43:05;26.33;;;14.23;;
48578;SDS011;34357;51.948;6.132;2023-04-01T07:48:51;26.27;;;13.13;;
48578;SDS011;34357;51.948;6.132;2023-04-01T07:51:26;28.70;;;14.07;;
48578;SDS011;34357;51.948;6.132;2023-04-01T08:00:00;24.75;;;12.73;;
48578;SDS011;34357;51.948;6.132;2023-04-01T08:05:33;24.88;;;12.93;;
48578;SDS011;34357;51.948;6.132;2023-04-01T08:08:17;20.67;;;12.18;;
48578;SDS011;34357;51.948;6.132;2023-04-01T08:17:58;17.13;;;10.93;;
48578;SDS011;34357;51.948;6.132;2023-04-01T08:23:00;15.18;;;10.18;;
48578;SDS011;34357;51.948;6.132;2023-04-01T08:29:05;15.70;;;10.45;;
48578;SDS011;34357;51.948;6.132;2023-04-01T08:31:37;14.88;;;10.27;;
48578;SDS011;34357;51.948;6.132;2023-04-01T08:34:21;14.20;;;9.55;;
48578;SDS011;34357;51.948;6.132;2023-04-01T08:36:53;13.80;;;9.15;;
48578;SDS011;34357;51.948;6.132;2023-04-01T08:50:48;9.43;;;6.15;;
48578;SDS011;34357;51.948;6.132;2023-04-01T08:53:50;9.07;;;6.72;;
48578;SDS011;34357;51.948;6.132;2023-04-01T08:56:39;6.75;;;5.32;;
48578;SDS011;34357;51.948;6.132;2023-04-01T09:10:59;7.32;;;5.63;;
48578;SDS011;34357;51.948;6.132;2023-04-01T09:17:23;7.13;;;5.05;;
48578;SDS011;34357;51.948;6.132;2023-04-01T09:34:21;9.30;;;5.90;;
48578;SDS011;34357;51.948;6.132;2023-04-01T09:37:13;7.30;;;5.32;;
48578;SDS011;34357;51.948;6.132;2023-04-01T09:45:46;7.63;;;4.30;;
48578;SDS011;34357;51.948;6.132;2023-04-01T10:02:50;2.60;;;1.30;;
48578;SDS011;34357;51.948;6.132;2023-04-01T10:22:54;1.05;;;0.60;;
48578;SDS011;34357;51.948;6.132;2023-04-01T10:25:30;1.45;;;0.70;;
48578;SDS011;34357;51.948;6.132;2023-04-01T10:34:40;1.88;;;1.20;;
48578;SDS011;34357;51.948;6.132;2023-04-01T11:10:36;7.47;;;6.03;;
48578;SDS011;34357;51.948;6.132;2023-04-01T11:29:14;9.43;;;6.93;;
48578;SDS011;34357;51.948;6.132;2023-04-01T11:40:40;11.73;;;8.63;;
48578;SDS011;34357;51.948;6.132;2023-04-01T11:46:33;16.02;;;10.75;;
48578;SDS011;34357;51.948;6.132;2023-04-01T11:52:06;14.60;;;11.15;;
48578;SDS011;34357;51.948;6.132;2023-04-01T12:00:18;12.73;;;9.60;;
48578;SDS011;34357;51.948;6.132;2023-04-01T12:14:36;8.30;;;4.60;;
48578;SDS011;34357;51.948;6.132;2023-04-01T12:17:39;2.05;;;1.67;;
48578;SDS011;34357;51.948;6.132;2023-04-01T12:30:35;1.67;;;1.20;;
48578;SDS011;34357;51.948;6.132;2023-04-01T12:36:10;2.15;;;1.30;;
48578;SDS011;34357;51.948;6.132;2023-04-01T12:41:53;5.82;;;2.35;;
48578;SDS011;34357;51.948;6.132;2023-04-01T12:49:55;1.58;;;1.27;;
48578;SDS011;34357;51.948;6.132;2023-04-01T12:52:28;1.42;;;1.33;;
48578;SDS011;34357;51.948;6.132;2023-04-01T12:55:08;3.33;;;2.75;;
48578;SDS011;34357;51.948;6.132;2023-04-01T12:58:00;1.92;;;1.20;;
48578;SDS011;34357;51.948;6.132;2023-04-01T13:06:27;2.30;;;0.70;;
48578;SDS011;34357;51.948;6.132;2023-04-01T13:14:48;3.28;;;1.60;;
48578;SDS011;34357;51.948;6.132;2023-04-01T13:17:23;3.58;;;2.22;;
48578;SDS011;34357;51.948;6.132;2023-04-01T13:20:46;3.42;;;2.28;;
48578;SDS011;34357;51.948;6.132;2023-04-01T13:28:14;4.55;;;3.10;;
48578;SDS011;34357;51.948;6.132;2023-04-01T13:33:55;4.22;;;3.60;;
48578;SDS011;34357;51.948;6.132;2023-04-01T13:40:02;4.20;;;3.50;;
48578;SDS011;34357;51.948;6.132;2023-04-01T13:42:49;5.88;;;3.42;;
48578;SDS011;34357;51.948;6.132;2023-04-01T13:45:40;3.78;;;2.88;;
48578;SDS011;34357;51.948;6.132;2023-04-01T13:59:08;4.82;;;3.90;;
48578;SDS011;34357;51.948;6.132;2023-04-01T14:10:18;6.22;;;3.42;;
48578;SDS011;34357;51.948;6.132;2023-04-01T14:13:04;7.25;;;3.55;;
48578;SDS011;34357;51.948;6.132;2023-04-01T14:37:58;3.15;;;2.85;;
48578;SDS011;34357;51.948;6.132;2023-04-01T14:44:01;3.95;;;2.00;;
48578;SDS011;34357;51.948;6.132;2023-04-01T14:49:22;2.35;;;2.15;;
48578;SDS011;34357;51.948;6.132;2023-04-01T14:51:57;2.50;;;2.30;;
48578;SDS011;34357;51.948;6.132;2023-04-01T14:54:39;4.13;;;3.28;;
48578;SDS011;34357;51.948;6.132;2023-04-01T14:59:46;3.65;;;2.75;;
48578;SDS011;34357;51.948;6.132;2023-04-01T15:13:16;3.35;;;3.05;;
48578;SDS011;34357;51.948;6.132;2023-04-01T15:29:58;7.68;;;4.75;;
48578;SDS011;34357;51.948;6.132;2023-04-01T15:32:43;8.57;;;4.90;;
48578;SDS011;34357;51.948;6.132;2023-04-01T15:37:55;8.52;;;6.32;;
48578;SDS011;34357;51.948;6.132;2023-04-01T15:40:30;25.70;;;8.30;;
48578;SDS011;34357;51.948;6.132;2023-04-01T15:43:13;11.13;;;5.95;;
48578;SDS011;34357;51.948;6.132;2023-04-01T15:49:13;4.80;;;3.88;;
48578;SDS011;34357;51.948;6.132;2023-04-01T15:52:06;5.60;;;5.10;;
48578;SDS011;34357;51.948;6.132;2023-04-01T15:57:56;12.05;;;5.72;;
48578;SDS011;34357;51.948;6.132;2023-04-01T16:09:51;7.22;;;6.03;;
48578;SDS011;34357;51.948;6.132;2023-04-01T16:12:34;10.23;;;7.72;;
48578;SDS011;34357;51.948;6.132;2023-04-01T16:26:22;9.75;;;8.13;;
48578;SDS011;34357;51.948;6.132;2023-04-01T16:29:09;10.40;;;8.75;;
48578;SDS011;34357;51.948;6.132;2023-04-01T16:34:34;10.40;;;9.38;;
48578;SDS011;34357;51.948;6.132;2023-04-01T16:37:17;11.60;;;10.40;;
48578;SDS011;34357;51.948;6.132;2023-04-01T16:39:52;10.88;;;9.77;;
48578;SDS011;34357;51.948;6.132;2023-04-01T16:42:22;11.70;;;10.50;;
48578;SDS011;34357;51.948;6.132;2023-04-01T16:47:40;8.65;;;7.85;;
48578;SDS011;34357;51.948;6.132;2023-04-01T16:50:22;8.10;;;7.40;;
48578;SDS011;34357;51.948;6.132;2023-04-01T16:53:16;8.57;;;7.68;;
48578;SDS011;34357;51.948;6.132;2023-04-01T16:58:27;10.77;;;9.57;;
48578;SDS011;34357;51.948;6.132;2023-04-01T17:01:07;10.27;;;9.27;;
48578;SDS011;34357;51.948;6.132;2023-04-01T17:03:40;10.50;;;9.40;;
48578;SDS011;34357;51.948;6.132;2023-04-01T17:06:19;10.20;;;9.18;;
48578;SDS011;34357;51.948;6.132;2023-04-01T17:08:53;10.40;;;9.40;;
48578;SDS011;34357;51.948;6.132;2023-04-01T17:11:22;10.75;;;9.68;;
48578;SDS011;34357;51.948;6.132;2023-04-01T17:19:42;13.05;;;9.95;;
48578;SDS011;34357;51.948;6.132;2023-04-01T17:22:31;11.52;;;10.32;;
48578;SDS011;34357;51.948;6.132;2023-04-01T17:25:14;11.45;;;10.25;;
48578;SDS011;34357;51.948;6.132;2023-04-01T17:27:51;11.90;;;10.70;;
48578;SDS011;34357;51.948;6.132;2023-04-01T17:30:28;14.30;;;12.80;;
48578;SDS011;34357;51.948;6.132;2023-04-01T17:33:05;13.80;;;12.40;;
48578;SDS011;34357;51.948;6.132;2023-04-01T17:41:19;14.35;;;12.88;;
48578;SDS011;34357;51.948;6.132;2023-04-01T17:44:13;13.55;;;12.25;;
48578;SDS011;34357;51.948;6.132;2023-04-01T17:46:56;14.68;;;13.18;;
48578;SDS011;34357;51.948;6.132;2023-04-01T17:49:37;13.65;;;12.18;;
48578;SDS011;34357;51.948;6.132;2023-04-01T17:57:31;17.08;;;14.45;;
48578;SDS011;34357;51.948;6.132;2023-04-01T18:03:00;17.92;;;16.02;;
48578;SDS011;34357;51.948;6.132;2023-04-01T18:24:13;20.38;;;18.17;;
48578;SDS011;34357;51.948;6.132;2023-04-01T18:32:34;19.63;;;17.63;;
48578;SDS011;34357;51.948;6.132;2023-04-01T18:35:23;20.10;;;18.05;;
48578;SDS011;34357;51.948;6.132;2023-04-01T18:38:15;19.58;;;17.48;;
48578;SDS011;34357;51.948;6.132;2023-04-01T18:40:52;21.02;;;18.83;;
48578;SDS011;34357;51.948;6.132;2023-04-01T18:43:43;19.52;;;17.58;;
48578;SDS011;34357;51.948;6.132;2023-04-01T18:46:24;18.73;;;16.80;;
48578;SDS011;34357;51.948;6.132;2023-04-01T18:57:16;17.65;;;15.98;;
48578;SDS011;34357;51.948;6.132;2023-04-01T19:02:32;17.80;;;16.00;;
48578;SDS011;34357;51.948;6.132;2023-04-01T19:05:10;17.33;;;15.52;;
48578;SDS011;34357;51.948;6.132;2023-04-01T19:10:40;15.02;;;13.52;;
48578;SDS011;34357;51.948;6.132;2023-04-01T19:35:47;17.52;;;15.93;;
48578;SDS011;34357;51.948;6.132;2023-04-01T19:46:43;13.50;;;12.07;;
48578;SDS011;34357;51.948;6.132;2023-04-01T19:57:11;16.90;;;15.30;;
48578;SDS011;34357;51.948;6.132;2023-04-01T20:00:02;17.10;;;15.48;;
48578;SDS011;34357;51.948;6.132;2023-04-01T20:05:45;17.02;;;15.35;;
48578;SDS011;34357;51.948;6.132;2023-04-01T20:08:25;16.17;;;14.57;;
48578;SDS011;34357;51.948;6.132;2023-04-01T20:11:34;16.45;;;14.88;;
48578;SDS011;34357;51.948;6.132;2023-04-01T20:16:47;13.32;;;12.13;;
48578;SDS011;34357;51.948;6.132;2023-04-01T20:20:18;14.68;;;13.27;;
48578;SDS011;34357;51.948;6.132;2023-04-01T20:27:54;17.33;;;15.73;;
48578;SDS011;34357;51.948;6.132;2023-04-01T20:50:52;16.25;;;14.57;;
48578;SDS011;34357;51.948;6.132;2023-04-01T21:01:33;15.73;;;14.02;;
48578;SDS011;34357;51.948;6.132;2023-04-01T21:07:10;16.98;;;15.32;;
48578;SDS011;34357;51.948;6.132;2023-04-01T21:10:36;23.80;;;16.60;;
48578;SDS011;34357;51.948;6.132;2023-04-01T21:26:51;15.50;;;13.98;;
48578;SDS011;34357;51.948;6.132;2023-04-01T21:49:25;13.35;;;12.05;;
48578;SDS011;34357;51.948;6.132;2023-04-01T21:57:59;17.75;;;15.95;;
48578;SDS011;34357;51.948;6.132;2023-04-01T22:06:31;19.30;;;17.30;;
48578;SDS011;34357;51.948;6.132;2023-04-01T22:11:45;18.00;;;15.45;;
48578;SDS011;34357;51.948;6.132;2023-04-01T22:14:41;16.90;;;15.20;;
48578;SDS011;34357;51.948;6.132;2023-04-01T22:17:41;14.70;;;13.40;;
48578;SDS011;34357;51.948;6.132;2023-04-01T22:23:42;11.68;;;10.57;;
48578;SDS011;34357;51.948;6.132;2023-04-01T22:26:22;11.10;;;10.10;;
48578;SDS011;34357;51.948;6.132;2023-04-01T22:31:41;14.95;;;13.55;;
48578;SDS011;34357;51.948;6.132;2023-04-01T22:39:49;12.55;;;11.23;;
48578;SDS011;34357;51.948;6.132;2023-04-01T22:42:39;12.43;;;11.27;;
48578;SDS011;34357;51.948;6.132;2023-04-01T22:50:27;12.13;;;10.95;;
48578;SDS011;34357;51.948;6.132;2023-04-01T22:53:21;15.10;;;12.32;;
48578;SDS011;34357;51.948;6.132;2023-04-01T22:56:13;14.85;;;13.35;;
48578;SDS011;34357;51.948;6.132;2023-04-01T22:58:51;15.57;;;14.05;;
48578;SDS011;34357;51.948;6.132;2023-04-01T23:01:27;16.48;;;14.63;;
48578;SDS011;34357;51.948;6.132;2023-04-01T23:03:57;16.17;;;13.60;;
48578;SDS011;34357;51.948;6.132;2023-04-01T23:06:26;17.05;;;15.35;;
48578;SDS011;34357;51.948;6.132;2023-04-01T23:09:01;17.05;;;15.30;;
48578;SDS011;34357;51.948;6.132;2023-04-01T23:35:49;20.20;;;16.70;;
48578;SDS011;34357;51.948;6.132;2023-04-01T23:38:36;19.48;;;15.93;;
48578;SDS011;34357;51.948;6.132;2023-04-01T23:41:04;20.40;;;16.42;;
48578;SDS011;34357;51.948;6.132;2023-04-01T23:43:32;18.92;;;14.82;;
48578;SDS011;34357;51.948;6.132;2023-04-01T23:46:02;19.85;;;15.63;;
48578;SDS011;34357;51.948;6.132;2023-04-01T23:48:36;18.75;;;15.55;;
48578;SDS011;34357;51.948;6.132;2023-04-01T23:51:13;18.52;;;14.60;;
48578;SDS011;34357;51.948;6.132;2023-04-01T23:53:45;18.52;;;13.20;;
48578;SDS011;34357;51.948;6.132;2023-04-01T23:56:12;16.13;;;13.45;;
48578;SDS011;34357;51.948;6.132;2023-04-01T23:58:45;15.27;;;13.60;;
